createdAt,value
2022-12-04T00:01:12.647Z,98384.72
2022-12-04T00:03:39.639Z,98382.94
2022-12-04T00:06:09.589Z,98382.03
2022-12-04T00:08:36.280Z,98374.25
2022-12-04T00:11:08.296Z,98378.72
2022-12-04T00:13:35.257Z,98377.84
2022-12-04T00:16:04.976Z,98378.66
2022-12-04T00:18:31.590Z,98378.03
2022-12-04T00:20:58.258Z,98371.25
2022-12-04T00:23:24.994Z,98368.72
2022-12-04T00:25:53.355Z,98369.56
2022-12-04T00:28:19.972Z,98380.63
2022-12-04T00:30:47.199Z,98380.50
2022-12-04T00:33:14.034Z,98387.31
2022-12-04T00:35:41.022Z,98382.22
2022-12-04T00:38:07.610Z,98381.31
2022-12-04T00:40:34.252Z,98386.50
2022-12-04T00:43:01.127Z,98379.66
2022-12-04T00:45:27.818Z,98377.91
2022-12-04T00:47:54.661Z,98371.03
2022-12-04T00:50:21.697Z,98375.41
2022-12-04T00:52:48.295Z,98368.50
2022-12-04T00:55:14.926Z,98365.91
2022-12-04T00:57:41.732Z,98364.31
2022-12-04T01:00:09.003Z,98371.38
2022-12-04T01:02:35.637Z,98367.78
2022-12-04T01:05:02.656Z,98371.28
2022-12-04T01:07:29.336Z,98374.78
2022-12-04T01:09:56.303Z,98380.66
2022-12-04T01:12:23.264Z,98371.97
2022-12-04T01:14:49.965Z,98381.47
2022-12-04T01:17:16.965Z,98378.94
2022-12-04T01:19:43.604Z,98386.69
2022-12-04T01:22:10.564Z,98385.91
2022-12-04T01:24:37.102Z,98389.28
2022-12-04T01:27:03.679Z,98394.50
2022-12-04T01:29:30.394Z,98392.84
2022-12-04T01:31:56.944Z,98392.00
2022-12-04T01:34:25.268Z,98393.78
2022-12-04T01:36:52.609Z,98392.09
2022-12-04T01:39:19.228Z,98393.06
2022-12-04T01:41:45.816Z,98397.44
2022-12-04T01:44:15.081Z,98392.28
2022-12-04T01:46:43.481Z,98391.38
2022-12-04T01:49:18.537Z,98380.22
2022-12-04T01:51:50.041Z,98374.25
2022-12-04T01:54:44.959Z,98381.25
2022-12-04T01:57:17.380Z,98385.53
2022-12-04T01:59:50.372Z,98383.00
2022-12-04T02:02:22.905Z,98377.84
2022-12-04T02:04:50.311Z,98384.81
2022-12-04T02:07:16.862Z,98379.63
2022-12-04T02:09:43.805Z,98370.09
2022-12-04T02:12:33.023Z,98384.88
2022-12-04T02:15:25.167Z,98378.94
2022-12-04T02:18:16.518Z,98383.13
2022-12-04T02:20:55.002Z,98375.25
2022-12-04T02:23:49.490Z,98370.19
2022-12-04T02:27:10.548Z,98371.06
2022-12-04T02:29:37.067Z,98363.22
2022-12-04T02:32:15.436Z,98370.00
2022-12-04T02:34:50.283Z,98373.44
2022-12-04T02:37:29.148Z,98362.94
2022-12-04T02:40:08.167Z,98370.69
2022-12-04T02:42:45.454Z,98370.03
2022-12-04T02:45:16.525Z,98360.63
2022-12-04T02:47:44.903Z,98367.50
2022-12-04T02:50:22.163Z,98368.41
2022-12-04T02:52:55.775Z,98376.91
2022-12-04T02:55:51.477Z,98379.44
2022-12-04T02:58:47.683Z,98389.00
2022-12-04T03:01:20.881Z,98383.78
2022-12-04T03:04:18.408Z,98377.84
2022-12-04T03:06:50.108Z,98380.53
2022-12-04T03:09:33.943Z,98388.38
2022-12-04T03:12:13.721Z,98389.38
2022-12-04T03:14:44.696Z,98386.72
2022-12-04T03:17:23.870Z,98380.72
2022-12-04T03:19:56.990Z,98382.50
2022-12-04T03:22:25.510Z,98388.41
2022-12-04T03:24:55.156Z,98384.03
2022-12-04T03:27:33.828Z,98381.25
2022-12-04T03:30:22.127Z,98371.78
2022-12-04T03:32:51.050Z,98376.16
2022-12-04T03:35:54.052Z,98384.81
2022-12-04T03:38:42.563Z,98368.47
2022-12-04T03:41:31.340Z,98359.94
2022-12-04T03:44:14.285Z,98361.72
2022-12-04T03:47:10.554Z,98361.09
2022-12-04T03:50:17.604Z,98366.28
2022-12-04T03:52:53.256Z,98360.31
2022-12-04T03:55:25.895Z,98365.50
2022-12-04T03:57:56.780Z,98354.41
2022-12-04T04:00:23.721Z,98351.72
2022-12-04T04:02:57.367Z,98362.94
2022-12-04T04:05:27.984Z,98368.25
2022-12-04T04:08:22.344Z,98355.25
2022-12-04T04:10:51.731Z,98352.63
2022-12-04T04:13:42.883Z,98350.94
2022-12-04T04:16:33.073Z,98354.31
2022-12-04T04:19:20.844Z,98354.25
2022-12-04T04:22:09.418Z,98342.97
2022-12-04T04:24:47.193Z,98349.75
2022-12-04T04:27:14.256Z,98347.97
2022-12-04T04:29:47.939Z,98349.59
2022-12-04T04:32:23.083Z,98353.84
2022-12-04T04:35:08.076Z,98357.34
2022-12-04T04:37:46.611Z,98352.25
2022-12-04T04:40:25.835Z,98360.13
2022-12-04T04:43:23.290Z,98351.75
2022-12-04T04:46:05.645Z,98363.88
2022-12-04T04:48:36.585Z,98369.06
2022-12-04T04:51:04.846Z,98363.91
2022-12-04T04:53:39.100Z,98379.41
2022-12-04T04:56:06.878Z,98376.91
2022-12-04T04:58:33.661Z,98377.00
2022-12-04T05:01:09.368Z,98377.81
2022-12-04T05:03:36.098Z,98379.44
2022-12-04T05:06:02.790Z,98376.84
2022-12-04T05:08:29.489Z,98382.06
2022-12-04T05:10:56.078Z,98379.53
2022-12-04T05:13:22.917Z,98378.66
2022-12-04T05:15:59.361Z,98378.66
2022-12-04T05:18:26.220Z,98387.25
2022-12-04T05:20:53.027Z,98384.69
2022-12-04T05:23:20.014Z,98382.97
2022-12-04T05:25:46.590Z,98382.25
2022-12-04T05:28:13.221Z,98389.16
2022-12-04T05:30:39.876Z,98390.94
2022-12-04T05:33:06.442Z,98394.38
2022-12-04T05:35:33.301Z,98396.97
2022-12-04T05:37:59.883Z,98402.00
2022-12-04T05:40:26.459Z,98411.44
2022-12-04T05:42:53.052Z,98409.66
2022-12-04T05:45:19.642Z,98413.13
2022-12-04T05:47:46.265Z,98414.03
2022-12-04T05:50:13.948Z,98415.75
2022-12-04T05:52:40.562Z,98416.69
2022-12-04T05:55:07.428Z,98420.16
2022-12-04T05:57:33.969Z,98421.00
2022-12-04T06:00:00.552Z,98424.34
2022-12-04T06:02:27.181Z,98414.81
2022-12-04T06:04:53.779Z,98407.88
2022-12-04T06:07:20.432Z,98409.66
2022-12-04T06:09:47.005Z,98407.81
2022-12-04T06:12:13.541Z,98402.72
2022-12-04T06:14:40.250Z,98395.94
2022-12-04T06:17:06.839Z,98396.13
2022-12-04T06:19:33.409Z,98397.00
2022-12-04T06:22:00.011Z,98393.50
2022-12-04T06:24:26.721Z,98395.22
2022-12-04T06:29:46.709Z,98401.28
2022-12-04T06:32:17.898Z,98389.22
2022-12-04T06:34:51.652Z,98395.28
2022-12-04T06:37:18.715Z,98391.84
2022-12-04T06:39:45.362Z,98387.56
2022-12-04T06:42:11.953Z,98393.69
2022-12-04T06:44:38.505Z,98402.34
2022-12-04T06:47:05.372Z,98404.03
2022-12-04T06:49:31.973Z,98394.56
2022-12-04T06:51:58.595Z,98391.13
2022-12-04T06:54:26.139Z,98394.56
2022-12-04T06:56:52.715Z,98398.69
2022-12-04T06:59:19.276Z,98390.91
2022-12-04T07:01:45.849Z,98389.94
2022-12-04T07:04:12.389Z,98387.38
2022-12-04T07:06:39.587Z,98390.84
2022-12-04T07:09:07.616Z,98384.78
2022-12-04T07:11:35.047Z,98383.91
2022-12-04T07:14:02.433Z,98391.59
2022-12-04T07:16:30.416Z,98396.78
2022-12-04T07:18:58.395Z,98385.47
2022-12-04T07:21:28.058Z,98398.31
2022-12-04T07:23:57.080Z,98397.34
2022-12-04T07:26:24.691Z,98405.22
2022-12-04T07:28:51.273Z,98401.81
2022-12-04T07:31:20.719Z,98401.09
2022-12-04T07:33:47.991Z,98400.38
2022-12-04T07:36:17.375Z,98408.13
2022-12-04T07:38:44.197Z,98410.72
2022-12-04T07:41:12.482Z,98409.03
2022-12-04T07:43:39.788Z,98402.88
2022-12-04T07:46:14.195Z,98409.72
2022-12-04T07:48:41.196Z,98409.72
2022-12-04T07:51:16.167Z,98410.63
2022-12-04T07:53:43.712Z,98405.56
2022-12-04T07:56:11.638Z,98414.22
2022-12-04T07:58:38.962Z,98421.91
2022-12-04T08:01:14.483Z,98418.50
2022-12-04T08:03:47.683Z,98428.06
2022-12-04T08:06:16.804Z,98428.91
2022-12-04T08:08:43.399Z,98437.50
2022-12-04T08:11:13.338Z,98429.75
2022-12-04T08:13:39.988Z,98423.66
2022-12-04T08:16:08.887Z,98425.44
2022-12-04T08:18:35.802Z,98431.44
2022-12-04T08:21:15.695Z,98426.25
2022-12-04T08:23:43.653Z,98418.59
2022-12-04T08:26:11.203Z,98418.66
2022-12-04T08:28:38.427Z,98423.72
2022-12-04T08:31:11.056Z,98421.09
2022-12-04T08:33:38.295Z,98430.63
2022-12-04T08:36:11.355Z,98436.69
2022-12-04T08:38:38.583Z,98433.22
2022-12-04T08:41:07.067Z,98437.41
2022-12-04T08:43:34.042Z,98435.63
2022-12-04T08:46:04.917Z,98437.31
2022-12-04T08:48:32.516Z,98445.06
2022-12-04T08:50:59.538Z,98434.72
2022-12-04T08:53:26.846Z,98439.97
2022-12-04T08:55:53.439Z,98437.47
2022-12-04T08:58:20.649Z,98440.88
2022-12-04T09:00:47.738Z,98441.69
2022-12-04T09:03:16.596Z,98439.81
2022-12-04T09:05:45.722Z,98434.66
2022-12-04T09:08:13.644Z,98438.09
2022-12-04T09:10:40.465Z,98443.22
2022-12-04T09:13:07.528Z,98438.84
2022-12-04T09:15:34.308Z,98442.22
2022-12-04T09:18:01.107Z,98454.25
2022-12-04T09:20:27.668Z,98450.00
2022-12-04T09:23:04.110Z,98445.72
2022-12-04T09:25:32.161Z,98453.38
2022-12-04T09:27:58.805Z,98444.78
2022-12-04T09:30:25.683Z,98447.25
2022-12-04T09:32:52.247Z,98441.13
2022-12-04T09:35:19.075Z,98440.06
2022-12-04T09:37:45.624Z,98438.44
2022-12-04T09:40:25.283Z,98443.38
2022-12-04T09:43:20.939Z,98447.66
2022-12-04T09:45:53.612Z,98442.38
2022-12-04T09:48:22.497Z,98442.31
2022-12-04T09:50:50.717Z,98442.19
2022-12-04T09:53:22.216Z,98443.97
2022-12-04T09:55:56.432Z,98442.53
2022-12-04T09:58:40.237Z,98436.28
2022-12-04T10:01:14.916Z,98437.97
2022-12-04T10:03:41.645Z,98436.88
2022-12-04T10:06:16.569Z,98426.47
2022-12-04T10:08:45.882Z,98417.72
2022-12-04T10:11:46.849Z,98421.13
2022-12-04T10:14:47.533Z,98420.38
2022-12-04T10:17:41.427Z,98415.13
2022-12-04T10:20:30.075Z,98419.50
2022-12-04T10:23:16.491Z,98417.81
2022-12-04T10:25:43.808Z,98419.66
2022-12-04T10:28:33.994Z,98423.94
2022-12-04T10:31:03.435Z,98428.13
2022-12-04T10:33:56.045Z,98416.97
2022-12-04T10:36:28.419Z,98413.50
2022-12-04T10:39:14.388Z,98413.50
2022-12-04T10:41:47.611Z,98410.81
2022-12-04T10:44:27.961Z,98410.09
2022-12-04T10:47:02.380Z,98402.34
2022-12-04T10:49:33.827Z,98404.03
2022-12-04T10:52:03.024Z,98401.47
2022-12-04T10:54:57.184Z,98406.41
2022-12-04T10:57:37.083Z,98401.03
2022-12-04T11:00:24.382Z,98392.50
2022-12-04T11:02:53.988Z,98384.78
2022-12-04T11:05:40.491Z,98383.84
2022-12-04T11:08:20.020Z,98385.69
2022-12-04T11:11:03.082Z,98379.63
2022-12-04T11:13:32.460Z,98371.78
2022-12-04T11:15:59.567Z,98370.78
2022-12-04T11:18:48.065Z,98356.72
2022-12-04T11:21:29.437Z,98355.66
2022-12-04T11:23:56.894Z,98347.22
2022-12-04T11:26:42.606Z,98351.59
2022-12-04T11:29:30.817Z,98336.78
2022-12-04T11:32:10.615Z,98342.75
2022-12-04T11:34:41.913Z,98337.53
2022-12-04T11:37:24.930Z,98345.25
2022-12-04T11:39:54.486Z,98347.06
2022-12-04T11:42:29.878Z,98350.59
2022-12-04T11:45:05.527Z,98347.91
2022-12-04T11:47:33.767Z,98357.16
2022-12-04T11:50:13.192Z,98350.41
2022-12-04T11:53:13.060Z,98347.78
2022-12-04T11:56:20.376Z,98349.72
2022-12-04T11:59:17.396Z,98339.28
2022-12-04T12:02:06.138Z,98348.84
2022-12-04T12:04:54.879Z,98354.91
2022-12-04T12:07:45.117Z,98356.50
2022-12-04T12:10:32.643Z,98369.53
2022-12-04T12:13:26.876Z,98358.09
2022-12-04T12:16:24.898Z,98353.88
2022-12-04T12:19:11.998Z,98354.59
2022-12-04T12:21:53.069Z,98353.91
2022-12-04T12:24:30.116Z,98351.22
2022-12-04T12:27:33.701Z,98348.69
2022-12-04T12:30:03.621Z,98343.41
2022-12-04T12:32:58.411Z,98350.19
2022-12-04T12:35:48.208Z,98351.31
2022-12-04T12:38:31.486Z,98343.44
2022-12-04T12:41:09.385Z,98348.41
2022-12-04T12:43:57.788Z,98351.06
2022-12-04T12:46:37.317Z,98352.75
2022-12-04T12:49:18.005Z,98353.44
2022-12-04T12:52:15.243Z,98353.34
2022-12-04T12:55:00.136Z,98353.38
2022-12-04T12:57:46.195Z,98352.75
2022-12-04T13:00:25.975Z,98356.25
2022-12-04T13:03:11.360Z,98350.28
2022-12-04T13:05:47.079Z,98353.59
2022-12-04T13:08:28.389Z,98345.88
2022-12-04T13:11:18.179Z,98340.59
2022-12-04T13:14:05.870Z,98338.03
2022-12-04T13:16:51.948Z,98338.81
2022-12-04T13:19:59.708Z,98332.72
2022-12-04T13:22:42.791Z,98332.75
2022-12-04T13:25:37.076Z,98328.47
2022-12-04T13:28:38.579Z,98324.19
2022-12-04T13:31:27.230Z,98326.88
2022-12-04T13:34:03.065Z,98323.44
2022-12-04T13:37:06.463Z,98315.53
2022-12-04T13:40:24.402Z,98307.69
2022-12-04T13:42:52.760Z,98314.50
2022-12-04T13:45:28.936Z,98307.50
2022-12-04T13:48:04.899Z,98313.66
2022-12-04T13:50:40.257Z,98319.56
2022-12-04T13:53:30.612Z,98312.56
2022-12-04T13:56:06.017Z,98323.13
2022-12-04T13:58:38.530Z,98329.25
2022-12-04T14:01:13.365Z,98330.13
2022-12-04T14:04:00.366Z,98319.69
2022-12-04T14:06:46.587Z,98312.00
2022-12-04T14:09:25.304Z,98312.91
2022-12-04T14:12:02.370Z,98313.75
2022-12-04T14:14:40.103Z,98311.00
2022-12-04T14:17:25.868Z,98307.69
2022-12-04T14:20:05.837Z,98308.59
2022-12-04T14:22:34.626Z,98305.81
2022-12-04T14:25:13.507Z,98303.97
2022-12-04T14:27:46.985Z,98306.47
2022-12-04T14:30:29.313Z,98309.03
2022-12-04T14:33:19.306Z,98301.31
2022-12-04T14:36:02.667Z,98304.84
2022-12-04T14:38:29.720Z,98304.03
2022-12-04T14:40:58.168Z,98305.72
2022-12-04T14:43:28.578Z,98311.78
2022-12-04T14:46:01.948Z,98321.25
2022-12-04T14:48:35.974Z,98320.44
2022-12-04T14:51:14.613Z,98314.31
2022-12-04T14:53:41.150Z,98311.63
2022-12-04T14:56:37.759Z,98313.38
2022-12-04T14:59:29.343Z,98304.66
2022-12-04T15:01:56.129Z,98312.44
2022-12-04T15:04:30.983Z,98306.31
2022-12-04T15:07:00.619Z,98310.69
2022-12-04T15:09:47.000Z,98308.16
2022-12-04T15:12:34.206Z,98308.00
2022-12-04T15:15:25.764Z,98315.81
2022-12-04T15:18:12.997Z,98314.00
2022-12-04T15:20:48.552Z,98313.94
2022-12-04T15:23:19.916Z,98303.47
2022-12-04T15:25:57.823Z,98318.16
2022-12-04T15:28:29.337Z,98314.66
2022-12-04T15:30:58.049Z,98307.78
2022-12-04T15:33:29.234Z,98317.47
2022-12-04T15:35:58.981Z,98325.44
2022-12-04T15:38:26.317Z,98319.41
2022-12-04T15:40:56.156Z,98324.53
2022-12-04T15:43:44.023Z,98324.59
2022-12-04T15:46:21.236Z,98315.03
2022-12-04T15:48:48.234Z,98314.22
2022-12-04T15:51:17.190Z,98320.31
2022-12-04T15:53:45.854Z,98310.78
2022-12-04T15:56:21.311Z,98314.22
2022-12-04T15:59:00.879Z,98314.13
2022-12-04T16:01:40.158Z,98311.56
2022-12-04T16:04:20.183Z,98307.19
2022-12-04T16:06:49.341Z,98307.13
2022-12-04T16:09:27.083Z,98309.72
2022-12-04T16:12:17.190Z,98313.13
2022-12-04T16:14:43.823Z,98308.72
2022-12-04T16:17:12.937Z,98309.47
2022-12-04T16:19:42.279Z,98310.16
2022-12-04T16:22:20.657Z,98310.06
2022-12-04T16:24:47.699Z,98309.16
2022-12-04T16:27:22.638Z,98308.22
2022-12-04T16:29:50.200Z,98304.75
2022-12-04T16:32:20.803Z,98310.75
2022-12-04T16:34:48.428Z,98306.41
2022-12-04T16:37:22.322Z,98304.53
2022-12-04T16:39:49.482Z,98308.88
2022-12-04T16:42:26.152Z,98312.41
2022-12-04T16:44:53.305Z,98314.00
2022-12-04T16:47:20.359Z,98307.03
2022-12-04T16:49:51.627Z,98320.75
2022-12-04T16:52:19.639Z,98319.06
2022-12-04T16:54:46.877Z,98315.53
2022-12-04T16:57:13.455Z,98309.38
2022-12-04T16:59:40.019Z,98309.38
2022-12-04T17:02:15.832Z,98310.13
2022-12-04T17:04:42.590Z,98311.88
2022-12-04T17:07:09.273Z,98317.81
2022-12-04T17:09:35.850Z,98316.00
2022-12-04T17:12:02.382Z,98321.25
2022-12-04T17:14:28.983Z,98316.13
2022-12-04T17:16:56.414Z,98317.00
2022-12-04T17:19:23.039Z,98316.97
2022-12-04T17:21:49.633Z,98322.09
2022-12-04T17:24:16.216Z,98315.97
2022-12-04T17:26:42.804Z,98320.28
2022-12-04T17:29:09.437Z,98319.44
2022-12-04T17:31:36.116Z,98320.22
2022-12-04T17:34:02.717Z,98331.44
2022-12-04T17:36:29.266Z,98327.13
2022-12-04T17:38:57.258Z,98328.03
2022-12-04T17:41:24.487Z,98335.03
2022-12-04T17:43:51.151Z,98335.94
2022-12-04T17:46:21.684Z,98335.97
2022-12-04T17:48:49.216Z,98333.38
2022-12-04T17:51:20.233Z,98335.97
2022-12-04T17:53:47.372Z,98333.38
2022-12-04T17:56:20.338Z,98335.03
2022-12-04T17:58:47.595Z,98337.59
2022-12-04T18:01:17.708Z,98341.91
2022-12-04T18:03:45.775Z,98334.16
2022-12-04T18:06:20.421Z,98335.94
2022-12-04T18:08:50.229Z,98340.22
2022-12-04T18:11:20.559Z,98341.94
2022-12-04T18:13:48.935Z,98335.84
2022-12-04T18:16:16.031Z,98333.22
2022-12-04T18:18:42.814Z,98337.53
2022-12-04T18:21:11.964Z,98336.63
2022-12-04T18:23:44.964Z,98334.00
2022-12-04T18:26:18.118Z,98330.44
2022-12-04T18:28:45.175Z,98338.38
2022-12-04T18:31:12.743Z,98336.63
2022-12-04T18:33:41.175Z,98336.63
2022-12-04T18:36:35.058Z,98338.56
2022-12-04T18:39:04.914Z,98341.22
2022-12-04T18:41:31.961Z,98343.03
2022-12-04T18:43:58.789Z,98349.00
2022-12-04T18:46:25.971Z,98346.41
2022-12-04T18:48:54.326Z,98337.75
2022-12-04T18:51:24.349Z,98356.03
2022-12-04T18:53:52.466Z,98350.88
2022-12-04T18:56:19.614Z,98355.34
2022-12-04T18:58:49.096Z,98350.31
2022-12-04T19:01:19.085Z,98355.38
2022-12-04T19:03:47.506Z,98357.81
2022-12-04T19:06:14.729Z,98357.03
2022-12-04T19:08:43.415Z,98356.97
2022-12-04T19:11:15.596Z,98364.59
2022-12-04T19:13:43.020Z,98368.06
2022-12-04T19:16:14.862Z,98367.31
2022-12-04T19:18:45.102Z,98380.13
2022-12-04T19:21:11.838Z,98378.38
2022-12-04T19:23:38.377Z,98382.66
2022-12-04T19:26:05.539Z,98390.50
2022-12-04T19:28:32.314Z,98387.84
2022-12-04T19:30:58.968Z,98390.41
2022-12-04T19:33:26.536Z,98393.91
2022-12-04T19:36:04.694Z,98397.44
2022-12-04T19:38:33.107Z,98401.81
2022-12-04T19:41:15.316Z,98403.47
2022-12-04T19:43:50.161Z,98404.38
2022-12-04T19:46:19.516Z,98404.38
2022-12-04T19:48:47.367Z,98412.09
2022-12-04T19:51:17.831Z,98419.09
2022-12-04T19:53:45.612Z,98412.16
2022-12-04T19:56:15.507Z,98413.88
2022-12-04T19:58:42.819Z,98418.25
2022-12-04T20:01:12.439Z,98415.72
2022-12-04T20:03:39.216Z,98419.22
2022-12-04T20:06:09.116Z,98414.03
2022-12-04T20:08:36.702Z,98423.59
2022-12-04T20:11:04.714Z,98417.63
2022-12-04T20:13:34.572Z,98422.00
2022-12-04T20:16:03.161Z,98415.22
2022-12-04T20:18:30.294Z,98416.94
2022-12-04T20:20:58.849Z,98413.56
2022-12-04T20:23:25.718Z,98419.63
2022-12-04T20:25:52.589Z,98415.34
2022-12-04T20:28:20.127Z,98420.53
2022-12-04T20:30:47.163Z,98414.56
2022-12-04T20:33:13.735Z,98414.59
2022-12-04T20:35:40.315Z,98416.34
2022-12-04T20:38:07.478Z,98413.84
2022-12-04T20:40:34.823Z,98411.25
2022-12-04T20:43:01.447Z,98408.66
2022-12-04T20:45:29.991Z,98415.53
2022-12-04T20:47:56.564Z,98418.06
2022-12-04T20:50:23.148Z,98416.25
2022-12-04T20:52:49.679Z,98417.97
2022-12-04T20:55:16.299Z,98419.63
2022-12-04T20:57:42.939Z,98418.78
2022-12-04T21:00:09.979Z,98418.84
2022-12-04T21:02:36.603Z,98413.59
2022-12-04T21:05:03.274Z,98419.53
2022-12-04T21:07:29.859Z,98422.13
2022-12-04T21:09:58.564Z,98416.13
2022-12-04T21:12:44.147Z,98415.31
2022-12-04T21:15:29.049Z,98411.84
2022-12-04T21:17:55.595Z,98412.78
2022-12-04T21:20:22.125Z,98412.78
2022-12-04T21:22:48.698Z,98413.66
2022-12-04T21:25:15.482Z,98414.50
2022-12-04T21:27:42.031Z,98414.50
2022-12-04T21:30:09.196Z,98405.88
2022-12-04T21:32:35.803Z,98408.47
2022-12-04T21:35:02.851Z,98411.09
2022-12-04T21:37:29.451Z,98411.06
2022-12-04T21:39:56.309Z,98408.50
2022-12-04T21:42:32.006Z,98407.66
2022-12-04T21:45:04.050Z,98420.66
2022-12-04T21:47:31.335Z,98410.28
2022-12-04T21:49:58.362Z,98417.25
2022-12-04T21:52:25.518Z,98418.13
2022-12-04T21:54:53.315Z,98424.22
2022-12-04T21:57:20.704Z,98429.44
2022-12-04T21:59:47.717Z,98428.63
2022-12-04T22:02:15.134Z,98430.34
2022-12-04T22:04:42.043Z,98436.31
2022-12-04T22:07:09.056Z,98432.88
2022-12-04T22:09:37.022Z,98443.28
2022-12-04T22:12:14.702Z,98438.94
2022-12-04T22:14:50.574Z,98449.38
2022-12-04T22:17:17.127Z,98452.91
2022-12-04T22:19:43.723Z,98454.72
2022-12-04T22:22:10.286Z,98453.03
2022-12-04T22:24:36.807Z,98450.41
2022-12-04T22:27:03.399Z,98459.84
2022-12-04T22:32:16.743Z,98461.47
2022-12-04T22:34:43.336Z,98452.81
2022-12-04T22:37:10.038Z,98457.94
2022-12-04T22:39:36.599Z,98460.53
2022-12-04T22:42:03.339Z,98457.06
2022-12-04T22:44:29.858Z,98463.13
2022-12-04T22:46:56.440Z,98471.72
2022-12-04T22:49:23.098Z,98469.16
2022-12-04T22:51:49.655Z,98477.81
2022-12-04T22:54:16.193Z,98479.53
2022-12-04T22:56:44.247Z,98467.44
2022-12-04T22:59:10.844Z,98470.91
2022-12-04T23:01:37.371Z,98474.28
2022-12-04T23:04:04.628Z,98466.50
2022-12-04T23:06:33.412Z,98476.00
2022-12-04T23:09:07.383Z,98476.81
2022-12-04T23:11:34.831Z,98483.75
2022-12-04T23:14:04.482Z,98486.28
2022-12-04T23:16:34.363Z,98481.16
2022-12-04T23:19:00.989Z,98478.56
2022-12-04T23:21:28.139Z,98478.59
2022-12-04T23:23:55.865Z,98476.91
2022-12-04T23:26:25.767Z,98483.78
2022-12-04T23:28:52.716Z,98482.91
2022-12-04T23:31:19.903Z,98486.34
2022-12-04T23:33:46.938Z,98489.75
2022-12-04T23:36:14.446Z,98494.06
2022-12-04T23:38:42.944Z,98494.88
2022-12-04T23:41:12.488Z,98490.53
2022-12-04T23:43:40.198Z,98501.69
2022-12-04T23:46:11.368Z,98505.19
2022-12-04T23:48:39.276Z,98517.28
2022-12-04T23:51:06.199Z,98511.19
2022-12-04T23:53:32.817Z,98513.78
2022-12-04T23:56:02.914Z,98514.59
2022-12-04T23:58:29.480Z,98521.50
